createdAt,value
2018-03-17T15:15:31.523Z,22.07
2018-03-17T15:17:59.162Z,24.48
2018-03-17T15:20:26.740Z,21.35
2018-03-17T15:22:54.312Z,15.82
2018-03-17T15:25:21.861Z,21.85
2018-03-17T15:27:49.463Z,14.10
2018-03-17T15:30:17.024Z,15.00
2018-03-17T15:32:44.690Z,13.30
2018-03-17T15:35:12.292Z,11.18
2018-03-17T15:37:39.826Z,17.05
2018-03-17T15:40:08.158Z,10.30
2018-03-17T15:42:35.702Z,8.05
2018-03-17T15:47:54.702Z,20.37
2018-03-17T15:50:23.569Z,11.70
2018-03-17T15:53:06.781Z,12.43
2018-03-17T15:55:34.578Z,11.50
2018-03-17T15:58:02.118Z,13.82
2018-03-17T16:00:29.693Z,20.25
2018-03-17T16:02:57.256Z,9.55
2018-03-17T16:05:24.791Z,6.03
2018-03-17T16:07:52.358Z,8.98
2018-03-17T16:10:19.896Z,12.45
2018-03-17T16:12:47.485Z,14.35
2018-03-17T16:15:15.025Z,11.45
2018-03-17T16:17:42.640Z,7.00
2018-03-17T16:20:11.525Z,11.80
2018-03-17T16:22:40.434Z,12.55
2018-03-17T16:25:09.332Z,11.25
2018-03-17T16:27:38.203Z,7.90
2018-03-17T16:30:07.094Z,10.98
2018-03-17T16:32:35.950Z,8.80
2018-03-17T16:35:04.849Z,6.30
2018-03-17T16:37:33.720Z,5.87
2018-03-17T16:40:02.617Z,6.90
2018-03-17T16:42:31.527Z,8.90
2018-03-17T16:44:59.084Z,5.90
2018-03-17T16:47:27.986Z,7.85
2018-03-17T16:49:56.911Z,16.77
2018-03-17T16:52:25.809Z,8.73
2018-03-17T16:54:54.702Z,11.60
2018-03-17T16:57:23.578Z,15.32
2018-03-17T16:59:52.491Z,6.53
2018-03-17T17:02:21.393Z,7.35
2018-03-17T17:04:50.283Z,5.37
2018-03-17T17:07:19.298Z,8.27
2018-03-17T17:09:48.228Z,7.80
2018-03-17T17:12:17.122Z,7.00
2018-03-17T17:14:46.038Z,5.53
2018-03-17T17:17:14.923Z,5.30
2018-03-17T17:19:43.799Z,6.37
2018-03-17T17:22:12.130Z,5.90
2018-03-17T17:24:39.666Z,6.37
2018-03-17T17:27:07.257Z,5.65
2018-03-17T17:29:34.815Z,6.70
2018-03-17T17:32:02.374Z,6.50
2018-03-17T17:34:31.265Z,16.80
2018-03-17T17:36:58.802Z,6.03
2018-03-17T17:39:26.506Z,16.27
2018-03-17T17:41:54.076Z,12.10
2018-03-17T17:44:21.683Z,9.07
2018-03-17T17:46:49.214Z,11.05
2018-03-17T17:49:17.548Z,11.70
2018-03-17T17:54:19.010Z,9.43
2018-03-17T17:56:46.558Z,12.37
2018-03-17T17:59:14.362Z,11.80
2018-03-17T18:01:42.611Z,7.47
2018-03-17T18:04:10.900Z,6.37
2018-03-17T18:06:38.471Z,7.15
2018-03-17T18:09:06.002Z,7.85
2018-03-17T18:11:33.555Z,9.80
2018-03-17T18:14:01.092Z,7.22
2018-03-17T18:16:28.649Z,7.12
2018-03-17T18:18:56.200Z,6.22
2018-03-17T18:21:24.528Z,6.37
2018-03-17T18:23:52.084Z,5.80
2018-03-17T18:26:21.150Z,5.53
2018-03-17T18:28:48.717Z,6.62
2018-03-17T18:31:16.298Z,5.53
2018-03-17T18:33:43.840Z,5.65
2018-03-17T18:36:11.399Z,6.35
2018-03-17T18:38:38.930Z,8.57
2018-03-17T18:41:07.251Z,5.70
2018-03-17T18:43:34.799Z,5.85
2018-03-17T18:46:02.352Z,5.72
2018-03-17T18:48:29.907Z,5.32
2018-03-17T18:50:57.448Z,5.50
2018-03-17T18:53:25.773Z,5.70
2018-03-17T18:55:53.353Z,5.47
2018-03-17T18:58:20.889Z,5.90
2018-03-17T19:00:48.559Z,5.28
2018-03-17T19:03:16.150Z,5.25
2018-03-17T19:05:44.453Z,6.87
2018-03-17T19:08:12.127Z,5.37
2018-03-17T19:10:40.015Z,5.75
2018-03-17T19:13:07.597Z,5.43
2018-03-17T19:15:35.134Z,5.50
2018-03-17T19:18:02.708Z,5.07
2018-03-17T19:20:30.252Z,5.00
2018-03-17T19:22:57.818Z,6.50
2018-03-17T19:25:25.395Z,6.15
2018-03-17T19:27:52.971Z,5.35
2018-03-17T19:30:20.532Z,5.20
2018-03-17T19:32:48.067Z,5.82
2018-03-17T19:35:15.638Z,5.40
2018-03-17T19:37:43.193Z,6.15
2018-03-17T19:40:11.583Z,5.57
2018-03-17T19:42:39.107Z,5.72
2018-03-17T19:45:06.673Z,5.12
2018-03-17T19:47:34.221Z,5.10
2018-03-17T19:50:01.788Z,6.15
2018-03-17T19:52:29.316Z,5.05
2018-03-17T19:54:56.887Z,5.50
2018-03-17T19:57:24.435Z,4.68
2018-03-17T19:59:52.012Z,6.05
2018-03-17T20:02:19.560Z,5.15
2018-03-17T20:04:47.095Z,5.70
2018-03-17T20:07:15.435Z,6.35
2018-03-17T20:09:42.984Z,11.25
2018-03-17T20:12:10.572Z,5.72
2018-03-17T20:14:38.090Z,5.40
2018-03-17T20:17:05.640Z,7.03
2018-03-17T20:19:33.232Z,6.60
2018-03-17T20:22:00.773Z,6.37
2018-03-17T20:24:28.359Z,6.72
2018-03-17T20:26:55.942Z,5.50
2018-03-17T20:29:24.267Z,5.45
2018-03-17T20:31:51.845Z,10.27
2018-03-17T20:34:19.422Z,5.32
2018-03-17T20:36:46.992Z,5.80
2018-03-17T20:39:14.542Z,6.35
2018-03-17T20:41:42.120Z,6.18
2018-03-17T20:44:10.505Z,6.22
2018-03-17T20:46:38.805Z,5.40
2018-03-17T20:49:06.346Z,5.35
2018-03-17T20:51:34.731Z,5.75
2018-03-17T20:54:03.088Z,5.57
2018-03-17T20:56:30.673Z,4.85
2018-03-17T20:58:58.978Z,5.18
2018-03-17T21:01:26.514Z,6.80
2018-03-17T21:03:54.061Z,5.35
2018-03-17T21:06:21.604Z,5.50
2018-03-17T21:08:49.939Z,5.75
2018-03-17T21:11:17.503Z,5.47
2018-03-17T21:13:45.034Z,5.50
2018-03-17T21:16:12.597Z,5.07
2018-03-17T21:18:40.941Z,5.50
2018-03-17T21:21:08.497Z,5.45
2018-03-17T21:23:36.025Z,5.97
2018-03-17T21:26:03.740Z,4.90
2018-03-17T21:28:31.289Z,6.12
2018-03-17T21:30:59.590Z,5.80
2018-03-17T21:33:27.408Z,7.53
2018-03-17T21:35:54.978Z,6.15
2018-03-17T21:38:22.502Z,4.85
2018-03-17T21:40:50.051Z,7.32
2018-03-17T21:43:17.584Z,5.28
2018-03-17T21:45:45.133Z,6.72
2018-03-17T21:48:13.453Z,5.05
2018-03-17T21:50:40.988Z,5.93
2018-03-17T21:53:09.733Z,6.00
2018-03-17T21:55:37.357Z,5.78
2018-03-17T21:58:04.895Z,5.85
2018-03-17T22:00:32.448Z,5.78
2018-03-17T22:02:59.985Z,5.20
2018-03-17T22:05:28.290Z,5.30
2018-03-17T22:07:55.860Z,6.37
2018-03-17T22:10:23.436Z,7.22
2018-03-17T22:12:50.950Z,5.55
2018-03-17T22:15:19.266Z,5.65
2018-03-17T22:17:46.812Z,9.00
2018-03-17T22:20:14.375Z,5.85
2018-03-17T22:22:42.676Z,5.60
2018-03-17T22:25:10.216Z,6.75
2018-03-17T22:27:37.780Z,5.50
2018-03-17T22:30:05.339Z,5.20
2018-03-17T22:32:32.896Z,6.03
2018-03-17T22:35:01.239Z,5.75
2018-03-17T22:37:29.529Z,6.10
2018-03-17T22:39:57.218Z,5.70
2018-03-17T22:42:24.758Z,6.25
2018-03-17T22:44:52.289Z,5.90
2018-03-17T22:47:20.612Z,5.62
2018-03-17T22:49:48.163Z,6.00
2018-03-17T22:52:15.723Z,5.95
2018-03-17T22:54:43.541Z,5.97
2018-03-17T22:57:11.095Z,6.85
2018-03-17T22:59:38.645Z,6.00
2018-03-17T23:02:06.193Z,6.37
2018-03-17T23:04:34.009Z,5.70
2018-03-17T23:07:02.316Z,6.50
2018-03-17T23:09:29.858Z,6.70
2018-03-17T23:11:57.398Z,6.47
2018-03-17T23:14:26.721Z,7.28
2018-03-17T23:16:56.516Z,6.40
2018-03-17T23:19:24.090Z,6.93
2018-03-17T23:21:51.658Z,6.40
2018-03-17T23:24:19.919Z,7.10
2018-03-17T23:26:47.494Z,7.07
2018-03-17T23:29:15.038Z,7.45
2018-03-17T23:31:42.579Z,6.57
2018-03-17T23:34:10.912Z,6.95
2018-03-17T23:36:39.149Z,6.25
2018-03-17T23:39:06.736Z,6.72
2018-03-17T23:41:34.276Z,6.03
2018-03-17T23:44:01.805Z,5.32
2018-03-17T23:46:30.130Z,6.45
2018-03-17T23:48:57.672Z,5.53
2018-03-17T23:51:25.231Z,7.00
2018-03-17T23:53:52.754Z,6.85
2018-03-17T23:56:21.087Z,6.80
2018-03-17T23:58:48.621Z,6.53
